createdAt,value
2018-02-11T00:02:17.112Z,0.83
2018-02-11T00:04:43.106Z,0.76
2018-02-11T00:07:09.120Z,0.79
2018-02-11T00:09:35.188Z,0.79
2018-02-11T00:12:01.185Z,0.80
2018-02-11T00:14:27.556Z,0.76
2018-02-11T00:16:53.562Z,0.75
2018-02-11T00:19:19.633Z,0.73
2018-02-11T00:21:45.662Z,0.72
2018-02-11T00:24:11.601Z,0.72
2018-02-11T00:26:37.671Z,0.73
2018-02-11T00:29:03.638Z,0.71
2018-02-11T00:31:30.026Z,0.76
2018-02-11T00:33:56.069Z,0.72
2018-02-11T00:36:22.078Z,0.70
2018-02-11T00:38:48.096Z,0.72
2018-02-11T00:41:14.100Z,0.73
2018-02-11T00:43:40.444Z,0.71
2018-02-11T00:46:06.432Z,0.74
2018-02-11T00:48:32.413Z,0.78
2018-02-11T00:50:58.429Z,0.75
2018-02-11T00:53:24.423Z,0.81
2018-02-11T00:55:50.453Z,0.77
2018-02-11T00:58:16.465Z,0.83
2018-02-11T01:00:42.525Z,0.85
2018-02-11T01:03:08.464Z,0.83
2018-02-11T01:05:34.881Z,0.86
2018-02-11T01:08:00.885Z,0.86
2018-02-11T01:10:26.826Z,0.84
2018-02-11T01:12:52.903Z,0.80
2018-02-11T01:15:18.945Z,0.77
2018-02-11T01:17:45.008Z,0.82
2018-02-11T01:20:10.981Z,0.80
2018-02-11T01:22:37.287Z,0.78
2018-02-11T01:25:03.272Z,0.77
2018-02-11T01:27:29.297Z,0.75
2018-02-11T01:29:55.352Z,0.72
2018-02-11T01:32:21.460Z,0.73
2018-02-11T01:34:47.816Z,0.72
2018-02-11T01:37:13.841Z,0.75
2018-02-11T01:39:39.830Z,0.71
2018-02-11T01:42:05.854Z,0.74
2018-02-11T01:44:31.877Z,0.77
2018-02-11T01:46:58.235Z,0.78
2018-02-11T01:49:24.228Z,0.76
2018-02-11T01:51:50.257Z,0.76
2018-02-11T01:54:16.300Z,0.72
2018-02-11T01:56:42.349Z,0.78
2018-02-11T01:59:08.325Z,0.80
2018-02-11T02:01:34.416Z,0.84
2018-02-11T02:04:00.401Z,0.79
2018-02-11T02:06:26.872Z,0.77
2018-02-11T02:08:52.907Z,0.83
2018-02-11T02:11:18.893Z,0.84
2018-02-11T02:13:44.929Z,0.78
2018-02-11T02:16:10.941Z,0.86
2018-02-11T02:18:36.953Z,0.73
2018-02-11T02:21:02.966Z,0.80
2018-02-11T02:23:29.345Z,0.85
2018-02-11T02:25:55.380Z,0.85
2018-02-11T02:28:21.392Z,0.86
2018-02-11T02:30:47.504Z,0.85
2018-02-11T02:33:13.437Z,0.81
2018-02-11T02:35:39.884Z,0.88
2018-02-11T02:38:05.856Z,0.84
2018-02-11T02:40:31.853Z,0.83
2018-02-11T02:42:57.865Z,0.83
2018-02-11T02:45:23.880Z,0.86
2018-02-11T02:47:50.273Z,0.87
2018-02-11T02:50:16.325Z,0.85
2018-02-11T02:52:42.348Z,0.85
2018-02-11T02:55:08.377Z,0.84
2018-02-11T02:57:34.449Z,0.86
2018-02-11T03:00:00.849Z,0.84
2018-02-11T03:02:26.863Z,0.86
2018-02-11T03:04:52.860Z,0.89
2018-02-11T03:07:18.881Z,0.93
2018-02-11T03:09:44.865Z,0.87
2018-02-11T03:12:11.261Z,0.86
2018-02-11T03:14:37.276Z,0.85
2018-02-11T03:17:03.276Z,0.82
2018-02-11T03:19:29.289Z,0.86
2018-02-11T03:21:55.326Z,0.91
2018-02-11T03:24:21.700Z,0.93
2018-02-11T03:26:47.702Z,0.92
2018-02-11T03:29:13.679Z,0.96
2018-02-11T03:31:39.628Z,0.94
2018-02-11T03:34:05.625Z,0.94
2018-02-11T03:36:32.029Z,0.93
2018-02-11T03:38:58.074Z,0.97
2018-02-11T03:41:24.152Z,0.81
2018-02-11T03:43:50.174Z,0.98
2018-02-11T03:46:16.150Z,0.95
2018-02-11T03:48:42.581Z,0.95
2018-02-11T03:51:08.576Z,0.90
2018-02-11T03:53:34.672Z,0.87
2018-02-11T03:56:00.708Z,0.92
2018-02-11T03:58:26.714Z,0.87
2018-02-11T04:00:53.068Z,0.90
2018-02-11T04:03:19.076Z,0.88
2018-02-11T04:05:45.072Z,0.91
2018-02-11T04:08:11.104Z,0.94
2018-02-11T04:10:37.129Z,0.94
2018-02-11T04:13:03.553Z,0.94
2018-02-11T04:15:29.566Z,0.95
2018-02-11T04:17:55.556Z,0.95
2018-02-11T04:20:21.557Z,0.96
2018-02-11T04:22:47.557Z,0.94
2018-02-11T04:25:13.557Z,0.91
2018-02-11T04:27:39.556Z,0.93
2018-02-11T04:30:05.584Z,0.99
2018-02-11T04:32:31.678Z,0.95
2018-02-11T04:34:57.673Z,0.97
2018-02-11T04:37:24.088Z,0.96
2018-02-11T04:39:50.093Z,0.96
2018-02-11T04:42:16.091Z,0.98
2018-02-11T04:44:42.120Z,1.01
2018-02-11T04:47:08.144Z,0.98
2018-02-11T04:49:34.170Z,1.01
2018-02-11T04:52:00.244Z,1.03
2018-02-11T04:54:26.649Z,1.06
2018-02-11T04:56:52.629Z,1.06
2018-02-11T04:59:18.628Z,1.04
2018-02-11T05:01:44.691Z,1.08
2018-02-11T05:04:10.758Z,1.13
2018-02-11T05:06:37.133Z,1.12
2018-02-11T05:09:03.101Z,1.02
2018-02-11T05:11:29.144Z,1.08
2018-02-11T05:13:55.149Z,1.08
2018-02-11T05:16:21.157Z,1.07
2018-02-11T05:18:47.175Z,0.99
2018-02-11T05:21:13.144Z,1.02
2018-02-11T05:23:39.501Z,0.97
2018-02-11T05:26:05.482Z,1.01
2018-02-11T05:28:31.484Z,0.98
2018-02-11T05:30:57.497Z,1.00
2018-02-11T05:33:23.478Z,1.00
2018-02-11T05:35:49.493Z,1.02
2018-02-11T05:38:15.533Z,0.98
2018-02-11T05:40:41.525Z,1.00
2018-02-11T05:43:07.540Z,0.99
2018-02-11T05:45:33.930Z,0.98
2018-02-11T05:48:00.048Z,1.02
2018-02-11T05:50:26.050Z,0.98
2018-02-11T05:52:52.048Z,0.98
2018-02-11T05:55:18.053Z,0.99
2018-02-11T05:57:44.052Z,0.95
2018-02-11T06:00:10.072Z,0.99
2018-02-11T06:02:36.518Z,0.89
2018-02-11T06:05:02.621Z,0.84
2018-02-11T06:07:28.605Z,0.90
2018-02-11T06:09:54.622Z,0.91
2018-02-11T06:12:20.678Z,0.95
2018-02-11T06:14:47.048Z,0.92
2018-02-11T06:17:13.054Z,0.89
2018-02-11T06:19:39.005Z,0.89
2018-02-11T06:22:05.016Z,0.76
2018-02-11T06:24:31.044Z,0.72
2018-02-11T06:26:57.044Z,0.85
2018-02-11T06:29:23.174Z,0.89
2018-02-11T06:31:49.644Z,0.91
2018-02-11T06:34:15.586Z,0.87
2018-02-11T06:36:41.563Z,0.85
2018-02-11T06:39:07.583Z,0.90
2018-02-11T06:41:33.580Z,0.86
2018-02-11T06:43:59.596Z,0.80
2018-02-11T06:46:25.593Z,0.83
2018-02-11T06:48:51.947Z,0.89
2018-02-11T06:51:17.999Z,0.86
2018-02-11T06:53:43.996Z,0.85
2018-02-11T06:56:10.049Z,0.84
2018-02-11T06:58:36.059Z,0.83
2018-02-11T07:01:02.108Z,0.87
2018-02-11T07:03:28.064Z,0.83
2018-02-11T07:05:54.082Z,0.80
2018-02-11T07:08:20.104Z,0.80
2018-02-11T07:10:46.168Z,0.80
2018-02-11T07:13:12.592Z,0.86
2018-02-11T07:15:38.672Z,0.86
2018-02-11T07:18:04.704Z,0.96
2018-02-11T07:20:30.767Z,1.07
2018-02-11T07:22:56.818Z,1.09
2018-02-11T07:25:22.822Z,1.11
2018-02-11T07:27:48.849Z,1.10
2018-02-11T07:30:14.884Z,1.19
2018-02-11T07:32:40.860Z,1.14
2018-02-11T07:35:07.224Z,1.17
2018-02-11T07:37:33.201Z,1.16
2018-02-11T07:39:59.338Z,1.22
2018-02-11T07:42:25.328Z,1.28
2018-02-11T07:44:51.373Z,1.28
2018-02-11T07:47:17.440Z,1.29
2018-02-11T07:49:43.461Z,1.32
2018-02-11T07:52:09.897Z,1.30
2018-02-11T07:54:35.901Z,1.27
2018-02-11T07:57:01.894Z,1.21
2018-02-11T07:59:27.920Z,1.32
2018-02-11T08:01:53.920Z,1.35
2018-02-11T08:04:19.944Z,1.38
2018-02-11T08:06:45.925Z,1.42
2018-02-11T08:09:11.917Z,1.40
2018-02-11T08:11:37.914Z,1.46
2018-02-11T08:14:04.328Z,1.52
2018-02-11T08:16:30.396Z,1.49
2018-02-11T08:18:56.343Z,1.49
2018-02-11T08:24:15.413Z,1.38
2018-02-11T08:26:41.429Z,1.38
2018-02-11T08:29:07.453Z,1.43
2018-02-11T08:31:33.493Z,1.40
2018-02-11T08:33:59.477Z,1.45
2018-02-11T08:36:25.913Z,1.56
2018-02-11T08:38:52.070Z,1.71
2018-02-11T08:41:18.125Z,1.71
2018-02-11T08:43:44.139Z,1.81
2018-02-11T08:46:10.180Z,1.90
2018-02-11T08:48:36.564Z,1.90
2018-02-11T08:51:02.594Z,2.10
2018-02-11T08:53:28.619Z,2.05
2018-02-11T08:55:54.664Z,1.98
2018-02-11T08:58:20.687Z,2.01
2018-02-11T09:00:46.727Z,1.99
2018-02-11T09:03:12.717Z,2.03
2018-02-11T09:05:39.121Z,2.02
2018-02-11T09:08:05.136Z,2.01
2018-02-11T09:10:31.193Z,2.00
2018-02-11T09:12:57.164Z,1.98
2018-02-11T09:15:23.226Z,1.97
2018-02-11T09:17:49.275Z,1.97
2018-02-11T09:20:15.265Z,2.12
2018-02-11T09:22:41.621Z,2.23
2018-02-11T09:25:07.638Z,2.37
2018-02-11T09:27:33.603Z,2.44
2018-02-11T09:29:59.612Z,2.43
2018-02-11T09:32:25.645Z,2.50
2018-02-11T09:34:51.793Z,2.56
2018-02-11T09:37:17.769Z,2.49
2018-02-11T09:39:44.147Z,2.39
2018-02-11T09:42:10.168Z,2.34
2018-02-11T09:44:36.200Z,2.34
2018-02-11T09:47:02.188Z,2.43
2018-02-11T09:49:28.189Z,2.50
2018-02-11T09:51:54.248Z,2.42
2018-02-11T09:54:20.307Z,2.51
2018-02-11T09:56:46.317Z,2.44
2018-02-11T09:59:12.345Z,2.43
2018-02-11T10:01:38.353Z,2.47
2018-02-11T10:04:04.859Z,2.52
2018-02-11T10:06:30.877Z,2.64
2018-02-11T10:08:56.903Z,2.78
2018-02-11T10:11:22.873Z,2.81
2018-02-11T10:13:48.873Z,2.89
2018-02-11T10:16:14.957Z,2.93
2018-02-11T10:18:40.941Z,2.91
2018-02-11T10:21:07.269Z,2.79
2018-02-11T10:23:33.280Z,2.86
2018-02-11T10:25:59.225Z,2.79
2018-02-11T10:28:25.246Z,2.80
2018-02-11T10:30:51.275Z,2.75
2018-02-11T10:33:17.299Z,2.77
2018-02-11T10:35:43.304Z,2.72
2018-02-11T10:38:09.733Z,2.69
2018-02-11T10:40:35.746Z,2.68
2018-02-11T10:43:01.756Z,2.68
2018-02-11T10:45:27.800Z,2.58
2018-02-11T10:47:53.845Z,2.55
2018-02-11T10:50:19.868Z,2.42
2018-02-11T10:52:45.794Z,2.32
2018-02-11T10:55:12.221Z,2.36
2018-02-11T10:57:39.069Z,2.34
2018-02-11T11:00:05.097Z,2.33
2018-02-11T11:02:31.129Z,2.31
2018-02-11T11:04:57.082Z,2.36
2018-02-11T11:07:23.129Z,2.42
2018-02-11T11:09:49.149Z,2.60
2018-02-11T11:12:15.518Z,2.69
2018-02-11T11:14:41.533Z,2.57
2018-02-11T11:17:07.536Z,2.73
2018-02-11T11:19:33.501Z,2.71
2018-02-11T11:21:59.501Z,2.80
2018-02-11T11:24:25.861Z,2.89
2018-02-11T11:26:51.889Z,2.84
2018-02-11T11:29:18.241Z,2.66
2018-02-11T11:31:44.257Z,2.75
2018-02-11T11:34:10.225Z,2.77
2018-02-11T11:36:36.296Z,2.81
2018-02-11T11:39:02.326Z,2.88
2018-02-11T11:41:28.328Z,2.95
2018-02-11T11:43:54.335Z,2.88
2018-02-11T11:46:20.692Z,2.77
2018-02-11T11:48:46.748Z,2.71
2018-02-11T11:51:12.721Z,2.59
2018-02-11T11:53:38.756Z,2.60
2018-02-11T11:56:04.737Z,2.58
2018-02-11T11:58:30.761Z,2.69
2018-02-11T12:00:56.912Z,2.62
2018-02-11T12:03:22.913Z,2.63
2018-02-11T12:05:48.961Z,2.58
2018-02-11T12:08:15.309Z,2.53
2018-02-11T12:10:41.303Z,2.53
2018-02-11T12:13:07.301Z,2.47
2018-02-11T12:15:33.314Z,2.47
2018-02-11T12:17:59.337Z,2.40
2018-02-11T12:20:25.385Z,2.42
2018-02-11T12:22:51.385Z,2.37
2018-02-11T12:25:17.737Z,2.33
2018-02-11T12:27:43.734Z,2.32
2018-02-11T12:30:09.733Z,2.28
2018-02-11T12:32:35.741Z,2.32
2018-02-11T12:35:01.737Z,2.21
2018-02-11T12:37:27.723Z,2.20
2018-02-11T12:39:53.760Z,2.21
2018-02-11T12:42:19.762Z,2.16
2018-02-11T12:44:46.114Z,2.17
2018-02-11T12:47:12.118Z,2.21
2018-02-11T12:49:38.163Z,2.19
2018-02-11T12:52:04.231Z,2.10
2018-02-11T12:54:30.269Z,2.03
2018-02-11T12:56:56.633Z,2.03
2018-02-11T12:59:22.645Z,1.94
2018-02-11T13:01:48.660Z,1.94
2018-02-11T13:04:14.700Z,1.96
2018-02-11T13:06:40.660Z,1.92
2018-02-11T13:09:06.689Z,1.91
2018-02-11T13:11:32.684Z,1.91
2018-02-11T13:13:58.981Z,1.95
2018-02-11T13:16:24.980Z,1.90
2018-02-11T13:18:50.997Z,1.90
2018-02-11T13:21:17.052Z,1.92
2018-02-11T13:23:43.073Z,1.94
2018-02-11T13:26:09.262Z,1.85
2018-02-11T13:28:35.273Z,1.84
2018-02-11T13:31:01.596Z,1.83
2018-02-11T13:33:27.681Z,1.74
2018-02-11T13:35:53.696Z,1.78
2018-02-11T13:38:19.645Z,1.84
2018-02-11T13:40:45.657Z,1.86
2018-02-11T13:43:11.711Z,1.81
2018-02-11T13:45:37.785Z,1.82
2018-02-11T13:48:03.798Z,1.72
2018-02-11T13:50:29.796Z,1.66
2018-02-11T13:52:56.147Z,1.71
2018-02-11T13:55:22.245Z,1.74
2018-02-11T13:57:48.273Z,1.70
2018-02-11T14:00:14.345Z,1.67
2018-02-11T14:02:40.365Z,1.66
2018-02-11T14:05:06.381Z,1.78
2018-02-11T14:07:32.428Z,1.78
2018-02-11T14:09:58.765Z,1.76
2018-02-11T14:12:24.784Z,1.73
2018-02-11T14:14:50.828Z,1.72
2018-02-11T14:17:16.889Z,1.72
2018-02-11T14:19:42.890Z,1.68
2018-02-11T14:22:08.962Z,1.70
2018-02-11T14:24:34.995Z,1.71
2018-02-11T14:27:01.437Z,1.70
2018-02-11T14:29:27.603Z,1.68
2018-02-11T14:31:53.588Z,1.75
2018-02-11T14:34:19.669Z,1.75
2018-02-11T14:36:45.692Z,1.73
2018-02-11T14:39:11.795Z,1.79
2018-02-11T14:41:37.806Z,1.77
2018-02-11T14:44:03.822Z,1.78
2018-02-11T14:46:29.813Z,1.83
2018-02-11T14:48:56.253Z,1.82
2018-02-11T14:51:22.249Z,1.83
2018-02-11T14:53:48.257Z,1.71
2018-02-11T14:56:14.305Z,1.82
2018-02-11T14:58:40.310Z,1.78
2018-02-11T15:01:06.350Z,1.74
2018-02-11T15:03:32.365Z,1.76
2018-02-11T15:05:58.734Z,1.71
2018-02-11T15:08:24.848Z,1.68
2018-02-11T15:10:50.863Z,1.70
2018-02-11T15:13:16.925Z,1.73
2018-02-11T15:15:43.284Z,1.73
2018-02-11T15:18:09.343Z,1.78
2018-02-11T15:20:35.340Z,1.79
2018-02-11T15:23:01.742Z,1.75
2018-02-11T15:25:27.717Z,1.76
2018-02-11T15:27:53.672Z,1.80
2018-02-11T15:30:19.695Z,1.80
2018-02-11T15:32:46.557Z,1.77
2018-02-11T15:35:12.632Z,1.82
2018-02-11T15:37:38.641Z,1.73
2018-02-11T15:40:04.728Z,1.76
2018-02-11T15:42:30.732Z,1.72
2018-02-11T15:44:57.212Z,1.75
2018-02-11T15:47:30.101Z,1.76
2018-02-11T15:49:56.102Z,1.74
2018-02-11T15:52:22.124Z,1.76
2018-02-11T15:54:48.163Z,1.77
2018-02-11T15:57:14.170Z,1.78
2018-02-11T15:59:40.244Z,1.78
2018-02-11T16:02:06.649Z,1.77
2018-02-11T16:04:32.630Z,1.81
2018-02-11T16:06:58.630Z,1.78
2018-02-11T16:09:24.675Z,1.87
2018-02-11T16:11:50.689Z,1.86
2018-02-11T16:14:16.716Z,1.87
2018-02-11T16:16:42.844Z,1.90
2018-02-11T16:19:09.529Z,1.88
2018-02-11T16:21:35.545Z,1.86
2018-02-11T16:24:01.595Z,1.88
2018-02-11T16:26:27.836Z,1.82
2018-02-11T16:28:53.811Z,1.87
2018-02-11T16:31:19.829Z,1.86
2018-02-11T16:33:45.817Z,1.83
2018-02-11T16:36:11.860Z,1.85
2018-02-11T16:38:37.837Z,1.84
2018-02-11T16:41:04.182Z,1.82
2018-02-11T16:43:30.292Z,1.84
2018-02-11T16:45:56.305Z,1.84
2018-02-11T16:48:22.287Z,1.82
2018-02-11T16:50:48.328Z,1.82
2018-02-11T16:53:14.396Z,1.81
2018-02-11T16:55:40.415Z,1.84
2018-02-11T16:58:06.469Z,1.89
2018-02-11T17:00:32.625Z,1.90
2018-02-11T17:02:59.025Z,1.89
2018-02-11T17:05:25.404Z,1.88
2018-02-11T17:07:51.393Z,1.85
2018-02-11T17:10:17.470Z,1.82
2018-02-11T17:12:43.441Z,1.81
2018-02-11T17:15:09.460Z,1.81
2018-02-11T17:17:35.517Z,1.78
2018-02-11T17:20:02.187Z,1.80
2018-02-11T17:22:28.181Z,1.76
2018-02-11T17:24:54.184Z,1.75
2018-02-11T17:27:20.236Z,1.74
2018-02-11T17:29:46.207Z,1.74
2018-02-11T17:32:12.202Z,1.74
2018-02-11T17:34:38.273Z,1.73
2018-02-11T17:37:04.250Z,1.70
2018-02-11T17:39:30.717Z,1.69
2018-02-11T17:41:56.789Z,1.67
2018-02-11T17:44:22.792Z,1.59
2018-02-11T17:46:48.794Z,1.68
2018-02-11T17:49:14.821Z,1.65
2018-02-11T17:51:40.921Z,1.67
2018-02-11T17:54:06.960Z,1.67
2018-02-11T17:56:32.986Z,1.60
2018-02-11T17:58:59.081Z,1.51
2018-02-11T18:01:25.223Z,1.62
2018-02-11T18:03:51.256Z,1.72
2018-02-11T18:06:17.277Z,1.77
2018-02-11T18:08:43.639Z,1.78
2018-02-11T18:11:09.630Z,1.78
2018-02-11T18:13:35.689Z,1.83
2018-02-11T18:16:01.676Z,1.77
2018-02-11T18:18:27.698Z,1.80
2018-02-11T18:20:53.728Z,1.80
2018-02-11T18:23:19.748Z,1.76
2018-02-11T18:25:46.073Z,1.77
2018-02-11T18:28:12.088Z,1.83
2018-02-11T18:30:38.076Z,1.83
2018-02-11T18:33:04.117Z,1.81
2018-02-11T18:35:30.152Z,1.91
2018-02-11T18:37:56.212Z,1.93
2018-02-11T18:40:22.226Z,1.93
2018-02-11T18:42:48.717Z,1.89
2018-02-11T18:45:14.772Z,1.94
2018-02-11T18:47:40.906Z,1.95
2018-02-11T18:50:06.925Z,1.99
2018-02-11T18:52:32.933Z,2.01
2018-02-11T18:54:59.079Z,2.01
2018-02-11T18:57:25.101Z,1.98
2018-02-11T18:59:51.489Z,2.00
2018-02-11T19:02:17.505Z,2.03
2018-02-11T19:04:43.516Z,2.03
2018-02-11T19:07:09.566Z,2.05
2018-02-11T19:09:35.658Z,2.00
2018-02-11T19:12:01.665Z,1.99
2018-02-11T19:14:27.657Z,2.00
2018-02-11T19:16:53.969Z,2.00
2018-02-11T19:19:20.044Z,2.03
2018-02-11T19:21:46.052Z,2.05
2018-02-11T19:24:12.092Z,2.08
2018-02-11T19:26:38.159Z,2.08
2018-02-11T19:29:04.153Z,2.08
2018-02-11T19:31:30.180Z,2.08
2018-02-11T19:33:56.586Z,2.05
2018-02-11T19:36:22.588Z,2.07
2018-02-11T19:38:48.845Z,2.09
2018-02-11T19:41:14.862Z,2.07
2018-02-11T19:43:40.920Z,2.06
2018-02-11T19:46:07.021Z,2.07
2018-02-11T19:48:33.072Z,2.10
2018-02-11T19:50:59.475Z,2.13
2018-02-11T19:53:25.497Z,2.11
2018-02-11T19:55:51.593Z,2.11
2018-02-11T19:58:17.602Z,2.12
2018-02-11T20:00:43.602Z,2.10
2018-02-11T20:03:09.628Z,2.12
2018-02-11T20:05:35.668Z,2.14
2018-02-11T20:08:02.054Z,2.11
2018-02-11T20:10:28.052Z,2.11
2018-02-11T20:12:54.044Z,2.10
2018-02-11T20:15:20.154Z,2.14
2018-02-11T20:17:46.173Z,2.14
2018-02-11T20:20:12.315Z,2.21
2018-02-11T20:22:38.351Z,2.08
2018-02-11T20:25:04.406Z,2.05
2018-02-11T20:27:30.451Z,2.07
2018-02-11T20:29:56.470Z,2.19
2018-02-11T20:32:22.929Z,2.27
2018-02-11T20:34:48.933Z,2.29
2018-02-11T20:37:15.012Z,2.25
2018-02-11T20:39:41.056Z,2.06
2018-02-11T20:42:07.050Z,2.22
2018-02-11T20:44:33.472Z,2.27
2018-02-11T20:46:59.492Z,2.29
2018-02-11T20:49:25.476Z,2.22
2018-02-11T20:51:51.487Z,2.23
2018-02-11T20:54:17.482Z,2.30
2018-02-11T20:56:43.581Z,2.29
2018-02-11T20:59:09.613Z,2.26
2018-02-11T21:01:36.015Z,2.31
2018-02-11T21:04:02.036Z,2.30
2018-02-11T21:06:28.017Z,2.26
2018-02-11T21:08:54.057Z,2.24
2018-02-11T21:11:20.054Z,2.25
2018-02-11T21:13:46.389Z,2.21
2018-02-11T21:16:12.427Z,2.17
2018-02-11T21:18:38.451Z,2.16
2018-02-11T21:21:04.480Z,2.13
2018-02-11T21:23:30.492Z,2.12
2018-02-11T21:25:56.838Z,2.13
2018-02-11T21:28:22.808Z,2.09
2018-02-11T21:30:48.878Z,1.99
2018-02-11T21:33:14.925Z,2.06
2018-02-11T21:35:41.967Z,2.08
2018-02-11T21:38:07.983Z,2.10
2018-02-11T21:40:34.041Z,2.11
2018-02-11T21:43:01.144Z,2.13
2018-02-11T21:45:27.210Z,2.12
2018-02-11T21:47:53.199Z,2.16
2018-02-11T21:50:19.249Z,2.16
2018-02-11T21:52:45.259Z,1.98
2018-02-11T21:55:11.321Z,2.08
2018-02-11T21:57:37.402Z,2.11
2018-02-11T22:00:03.806Z,2.06
2018-02-11T22:02:29.832Z,2.09
2018-02-11T22:04:55.825Z,2.13
2018-02-11T22:07:21.864Z,2.11
2018-02-11T22:09:47.884Z,2.12
2018-02-11T22:12:13.931Z,2.14
2018-02-11T22:14:39.984Z,2.11
2018-02-11T22:17:06.289Z,2.10
2018-02-11T22:19:32.311Z,2.10
2018-02-11T22:21:58.272Z,2.12
2018-02-11T22:24:24.316Z,2.13
2018-02-11T22:26:50.350Z,2.16
2018-02-11T22:29:16.381Z,2.17
2018-02-11T22:31:42.369Z,2.18
2018-02-11T22:34:08.405Z,2.14
2018-02-11T22:36:34.421Z,2.16
2018-02-11T22:39:00.415Z,2.19
2018-02-11T22:41:26.871Z,2.15
2018-02-11T22:43:52.936Z,2.18
2018-02-11T22:46:18.945Z,2.18
2018-02-11T22:48:44.975Z,2.22
2018-02-11T22:51:10.999Z,2.19
2018-02-11T22:53:37.020Z,2.17
2018-02-11T22:56:03.112Z,2.17
2018-02-11T22:58:29.563Z,2.21
2018-02-11T23:00:55.577Z,2.18
2018-02-11T23:03:21.580Z,2.21
2018-02-11T23:05:47.591Z,2.19
2018-02-11T23:08:13.600Z,2.17
2018-02-11T23:10:39.615Z,2.18
2018-02-11T23:13:05.633Z,2.15
2018-02-11T23:15:32.026Z,2.25
2018-02-11T23:17:58.049Z,2.21
2018-02-11T23:20:24.072Z,2.19
2018-02-11T23:22:50.069Z,2.17
2018-02-11T23:25:16.046Z,2.17
2018-02-11T23:27:42.064Z,2.15
2018-02-11T23:30:08.072Z,2.14
2018-02-11T23:32:34.404Z,2.15
2018-02-11T23:35:00.395Z,2.13
2018-02-11T23:37:26.419Z,2.15
2018-02-11T23:39:52.452Z,2.13
2018-02-11T23:42:18.475Z,2.09
2018-02-11T23:44:44.547Z,2.14
2018-02-11T23:47:10.573Z,2.15
2018-02-11T23:49:36.569Z,2.13
2018-02-11T23:52:02.571Z,2.15
2018-02-11T23:54:28.963Z,2.18
2018-02-11T23:56:54.996Z,2.18
2018-02-11T23:59:21.055Z,2.16
